Time;durP1;ratioP1;P1;durP2;ratioP2;P2;SDS_P1;SDS_P2;PMS_P1;PMS_P2;Temp;Humidity;BMP_temperature;BMP_pressure;BME280_temperature;BME280_humidity;BME280_pressure;Samples;Min_cycle;Max_cycle;Signal;HPM_P1;HPM_P2
2022/01/14 00:01:06;;;;;;;8.02;3.53;;;0.00;99.90;;;;;;5052298;28;20490;-80
2022/01/14 00:03:32;;;;;;;4.82;4.22;;;0.00;99.90;;;;;;5034568;28;20037;-79
2022/01/14 00:05:58;;;;;;;5.95;3.20;;;0.00;99.90;;;;;;5051595;28;20025;-80
2022/01/14 00:08:24;;;;;;;6.10;4.43;;;0.10;99.90;;;;;;5051914;28;20025;-80
2022/01/14 00:10:50;;;;;;;4.20;2.78;;;0.10;99.90;;;;;;5050591;28;20375;-79
2022/01/14 00:16:04;;;;;;;4.07;3.30;;;0.10;99.90;;;;;;5052556;28;20032;-82
2022/01/14 00:18:30;;;;;;;4.28;3.20;;;0.10;99.90;;;;;;5030744;28;20025;-80
2022/01/14 00:20:56;;;;;;;5.45;3.70;;;0.20;99.90;;;;;;5054885;28;20087;-76
2022/01/14 00:23:30;;;;;;;6.10;3.95;;;0.10;99.90;;;;;;5053697;28;20021;-80
2022/01/14 00:34:12;;;;;;;5.13;3.10;;;0.20;99.90;;;;;;5056227;28;20177;-80
2022/01/14 00:36:39;;;;;;;6.97;3.25;;;0.20;99.90;;;;;;5059883;28;20013;-80
2022/01/14 00:39:07;;;;;;;4.53;3.13;;;0.30;99.90;;;;;;5055547;28;20029;-82
2022/01/14 00:41:34;;;;;;;3.95;3.05;;;0.20;99.90;;;;;;5055153;28;20040;-80
2022/01/14 00:44:03;;;;;;;3.90;3.45;;;0.30;99.90;;;;;;5055146;28;20021;-80
2022/01/14 00:46:29;;;;;;;4.57;3.03;;;0.20;99.90;;;;;;5042886;28;20041;-80
2022/01/14 00:48:56;;;;;;;5.35;3.45;;;0.30;99.90;;;;;;5054112;28;20021;-78
2022/01/14 00:51:22;;;;;;;3.75;2.70;;;0.30;99.90;;;;;;5037091;28;20462;-79
2022/01/14 00:53:48;;;;;;;5.22;3.38;;;0.30;99.90;;;;;;5054903;28;20029;-80
2022/01/14 00:56:26;;;;;;;4.45;3.53;;;0.30;99.90;;;;;;5054901;28;20398;-78
2022/01/14 01:01:38;;;;;;;5.07;2.78;;;0.30;99.90;;;;;;5035224;28;20028;-78
2022/01/14 01:04:04;;;;;;;3.78;2.35;;;0.30;99.90;;;;;;5034839;28;20036;-80
2022/01/14 01:06:29;;;;;;;3.95;2.53;;;0.30;99.90;;;;;;5034966;28;20037;-79
2022/01/14 01:08:56;;;;;;;4.85;2.85;;;0.30;99.90;;;;;;5051673;28;20394;-80
2022/01/14 01:11:28;;;;;;;3.05;2.38;;;0.30;99.90;;;;;;5055654;28;20021;-79
2022/01/14 01:14:20;;;;;;;4.00;2.70;;;0.40;99.90;;;;;;5056218;28;20032;-79
2022/01/14 01:16:40;;;;;;;4.10;2.40;;;0.40;99.90;;;;;;5054862;28;20044;-80
2022/01/14 01:19:10;;;;;;;3.47;2.28;;;0.40;99.90;;;;;;5054932;28;20021;-78
2022/01/14 01:21:36;;;;;;;4.15;2.67;;;0.40;99.90;;;;;;5036699;28;20049;-79
2022/01/14 01:24:03;;;;;;;4.10;2.95;;;0.40;99.90;;;;;;5054631;28;20021;-79
2022/01/14 01:26:33;;;;;;;3.50;2.50;;;0.40;99.90;;;;;;5055271;28;20045;-77
2022/01/14 01:31:38;;;;;;;3.17;2.55;;;0.30;99.90;;;;;;5062916;28;20029;-79
2022/01/14 01:34:12;;;;;;;4.50;2.40;;;0.40;99.90;;;;;;5060603;28;20021;-79
2022/01/14 01:36:40;;;;;;;4.25;2.83;;;0.40;99.90;;;;;;5063485;28;20051;-79
2022/01/14 01:39:10;;;;;;;3.80;2.33;;;0.40;99.90;;;;;;5058569;28;20029;-78
2022/01/14 01:41:38;;;;;;;3.33;2.50;;;0.40;99.90;;;;;;5055579;28;20032;-79
2022/01/14 01:44:06;;;;;;;4.82;2.42;;;0.40;99.90;;;;;;5055345;28;20489;-78
2022/01/14 01:46:34;;;;;;;3.53;2.35;;;0.40;99.90;;;;;;5054922;28;20036;-78
2022/01/14 01:49:00;;;;;;;3.60;2.58;;;0.40;99.90;;;;;;5047909;28;20026;-79
2022/01/14 01:51:26;;;;;;;3.70;2.58;;;0.40;99.90;;;;;;5056380;28;20029;-79
2022/01/14 01:53:52;;;;;;;3.67;2.38;;;0.40;99.90;;;;;;5054272;28;20021;-80
2022/01/14 01:56:17;;;;;;;3.60;2.30;;;0.40;99.90;;;;;;5054228;28;20108;-79
2022/01/14 01:58:44;;;;;;;3.20;2.10;;;0.40;99.90;;;;;;5054091;28;20023;-78
2022/01/14 02:01:10;;;;;;;5.90;2.50;;;0.40;99.90;;;;;;5035896;28;20033;-79
2022/01/14 02:03:37;;;;;;;2.05;1.85;;;0.40;99.90;;;;;;5053752;28;20382;-79
2022/01/14 02:06:05;;;;;;;4.00;2.30;;;0.40;99.90;;;;;;5053113;28;20065;-77
2022/01/14 02:08:31;;;;;;;3.88;2.10;;;0.40;99.90;;;;;;5053425;28;20035;-80
2022/01/14 02:10:59;;;;;;;2.13;1.52;;;0.40;99.90;;;;;;5053536;28;20033;-80
2022/01/14 02:13:25;;;;;;;5.55;2.03;;;0.40;99.90;;;;;;5053300;28;20029;-80
2022/01/14 02:16:16;;;;;;;3.88;2.38;;;0.40;99.90;;;;;;5053297;28;20029;-80
2022/01/14 02:24:07;;;;;;;2.75;2.08;;;0.40;99.90;;;;;;5053532;28;20063;-77
2022/01/14 02:26:44;;;;;;;3.55;1.73;;;0.40;99.90;;;;;;5052780;28;20037;-78
2022/01/14 02:29:11;;;;;;;2.35;1.80;;;0.40;99.90;;;;;;5052927;28;20021;-77
2022/01/14 02:31:37;;;;;;;2.92;2.20;;;0.50;99.90;;;;;;5052773;28;20033;-76
2022/01/14 02:34:02;;;;;;;2.28;2.08;;;0.50;99.90;;;;;;5026860;28;20028;-76
2022/01/14 02:36:30;;;;;;;3.47;1.65;;;0.40;99.90;;;;;;5052769;28;20024;-76
2022/01/14 02:38:56;;;;;;;3.08;1.42;;;0.50;99.90;;;;;;5052984;28;20032;-76
2022/01/14 02:41:21;;;;;;;4.43;2.25;;;0.50;99.90;;;;;;5053045;28;20029;-75
2022/01/14 02:43:47;;;;;;;2.53;1.70;;;0.50;99.90;;;;;;5052999;28;20100;-76
2022/01/14 02:46:15;;;;;;;2.72;1.67;;;0.50;99.90;;;;;;5052342;28;20496;-75
2022/01/14 02:48:41;;;;;;;;;;;0.50;99.90;;;;;;5053157;28;20060;-76
2022/01/14 02:51:12;;;;;;;3.83;1.92;;;0.50;99.90;;;;;;5052872;28;19940;-78
2022/01/14 02:56:09;;;;;;;1.57;1.13;;;0.40;99.90;;;;;;5052883;28;20027;-75
2022/01/14 02:58:36;;;;;;;1.05;0.90;;;0.50;99.90;;;;;;5052366;28;20025;-77
2022/01/14 03:01:05;;;;;;;5.03;1.83;;;0.50;99.90;;;;;;5052199;28;20091;-77
2022/01/14 03:03:32;;;;;;;1.88;1.60;;;0.50;99.90;;;;;;5051123;28;20029;-77
2022/01/14 03:06:03;;;;;;;2.97;1.40;;;0.50;99.90;;;;;;5052047;28;20032;-75
2022/01/14 03:08:29;;;;;;;2.78;1.08;;;0.50;99.90;;;;;;5052406;28;20577;-76
2022/01/14 03:11:11;;;;;;;1.98;1.73;;;0.50;99.90;;;;;;5052858;28;20433;-77
2022/01/14 03:13:37;;;;;;;2.70;1.35;;;0.60;99.90;;;;;;5051591;28;20017;-76
2022/01/14 03:16:04;;;;;;;2.63;1.90;;;0.60;99.90;;;;;;5051927;28;20109;-77
2022/01/14 03:18:40;;;;;;;2.78;1.38;;;0.60;99.90;;;;;;5052180;28;20028;-76
2022/01/14 03:21:13;;;;;;;4.63;1.75;;;0.60;99.90;;;;;;5051901;28;20099;-76
2022/01/14 03:23:48;;;;;;;6.78;2.10;;;0.60;99.90;;;;;;5052239;28;20493;-74
2022/01/14 03:26:15;;;;;;;2.00;1.10;;;0.60;99.90;;;;;;5052189;28;20024;-75
2022/01/14 03:28:42;;;;;;;2.97;1.60;;;0.60;99.90;;;;;;5053139;28;20082;-75
2022/01/14 03:31:08;;;;;;;3.85;1.73;;;0.60;99.90;;;;;;5038066;28;20025;-77
2022/01/14 03:33:34;;;;;;;2.70;1.40;;;0.60;99.90;;;;;;5052471;28;20025;-76
2022/01/14 03:36:01;;;;;;;3.95;2.30;;;0.60;99.90;;;;;;5052122;28;20028;-75
2022/01/14 03:38:27;;;;;;;1.38;1.05;;;0.60;99.90;;;;;;5051916;28;20029;-77
2022/01/14 03:40:52;;;;;;;1.50;1.00;;;0.70;99.90;;;;;;5052326;28;20017;-77
2022/01/14 03:43:18;;;;;;;7.85;1.45;;;0.70;99.90;;;;;;5050523;28;20036;-77
2022/01/14 03:45:45;;;;;;;2.60;0.82;;;0.70;99.90;;;;;;5051858;28;20033;-77
2022/01/14 03:48:11;;;;;;;2.72;1.35;;;0.70;99.90;;;;;;5052325;28;20096;-76
2022/01/14 03:50:37;;;;;;;1.60;1.00;;;0.70;99.90;;;;;;5045521;28;20460;-78
2022/01/14 03:53:03;;;;;;;4.72;1.45;;;0.70;99.90;;;;;;5050576;28;20035;-76
2022/01/14 03:55:29;;;;;;;2.72;1.80;;;0.80;99.90;;;;;;5052136;28;20544;-78
2022/01/14 03:57:55;;;;;;;4.80;2.30;;;0.80;99.90;;;;;;5053178;28;20021;-76
2022/01/14 04:00:22;;;;;;;2.10;1.38;;;0.80;99.90;;;;;;5035275;28;20036;-76
2022/01/14 04:02:48;;;;;;;2.88;2.17;;;0.90;99.90;;;;;;5053777;28;20381;-78
2022/01/14 04:05:14;;;;;;;2.22;1.73;;;0.90;99.90;;;;;;5054905;28;20036;-76
2022/01/14 04:07:41;;;;;;;3.95;2.50;;;0.90;99.90;;;;;;5055817;28;20037;-79
2022/01/14 04:10:10;;;;;;;6.27;2.40;;;0.90;99.90;;;;;;5056433;28;20017;-77
2022/01/14 04:12:48;;;;;;;5.32;2.58;;;0.90;99.90;;;;;;5062327;28;20043;-78
2022/01/14 04:18:00;;;;;;;4.70;1.92;;;1.00;99.90;;;;;;5056829;28;20052;-78
2022/01/14 04:20:27;;;;;;;7.20;2.58;;;1.00;99.90;;;;;;5055946;28;20037;-77
2022/01/14 04:22:53;;;;;;;4.85;2.58;;;1.00;99.90;;;;;;5055695;28;20025;-78
2022/01/14 04:25:20;;;;;;;4.85;3.10;;;1.00;99.90;;;;;;5055418;28;20401;-77
2022/01/14 04:27:46;;;;;;;5.50;3.45;;;1.00;99.90;;;;;;5055290;28;20159;-77
2022/01/14 04:30:12;;;;;;;5.53;2.50;;;1.10;99.90;;;;;;5055623;28;20032;-78
2022/01/14 04:32:38;;;;;;;6.57;2.65;;;1.10;99.90;;;;;;5055310;28;20039;-78
2022/01/14 04:35:04;;;;;;;4.55;2.63;;;1.10;99.90;;;;;;5056938;28;20112;-77
2022/01/14 04:37:30;;;;;;;3.22;2.10;;;1.10;99.90;;;;;;5057237;28;20043;-78
2022/01/14 04:39:56;;;;;;;4.70;1.92;;;1.10;99.90;;;;;;5057794;28;20104;-78
2022/01/14 04:42:23;;;;;;;5.03;2.38;;;1.20;99.90;;;;;;5056013;28;20025;-77
2022/01/14 04:44:53;;;;;;;7.60;3.50;;;1.20;99.90;;;;;;5055142;28;20099;-77
2022/01/14 04:47:30;;;;;;;7.07;3.97;;;1.30;99.90;;;;;;5055129;28;20095;-77
2022/01/14 04:49:57;;;;;;;5.63;3.25;;;1.30;99.90;;;;;;5054254;28;20386;-78
2022/01/14 04:52:23;;;;;;;8.20;2.72;;;1.30;99.90;;;;;;5050236;28;20065;-77
2022/01/14 04:54:49;;;;;;;5.20;3.00;;;1.30;99.90;;;;;;5053937;28;20041;-76
2022/01/14 04:57:21;;;;;;;7.97;2.58;;;1.30;99.90;;;;;;5055086;28;20388;-78
2022/01/14 04:59:50;;;;;;;5.78;2.75;;;1.40;99.90;;;;;;5054849;28;20090;-77
2022/01/14 05:02:16;;;;;;;8.38;3.63;;;1.40;99.90;;;;;;5054386;28;20025;-78
2022/01/14 05:04:43;;;;;;;5.45;3.20;;;1.40;99.90;;;;;;5054788;28;20029;-78
2022/01/14 05:07:14;;;;;;;;;;;1.50;99.90;;;;;;5055173;28;20409;-80
2022/01/14 05:09:45;;;;;;;10.18;3.63;;;1.50;99.90;;;;;;5054419;28;19909;-79
2022/01/14 05:12:11;;;;;;;6.25;2.55;;;1.50;99.90;;;;;;5054393;28;20025;-81
2022/01/14 05:14:38;;;;;;;4.95;2.25;;;1.60;99.90;;;;;;5054422;28;20070;-78
2022/01/14 05:17:04;;;;;;;4.00;2.90;;;1.60;99.90;;;;;;5054367;28;20029;-79
2022/01/14 05:19:29;;;;;;;6.10;3.63;;;1.60;99.90;;;;;;5054796;28;20047;-80
2022/01/14 05:21:55;;;;;;;6.75;2.47;;;1.60;99.90;;;;;;5036864;28;20078;-80
2022/01/14 05:24:23;;;;;;;4.57;2.72;;;1.70;99.90;;;;;;5056009;28;20025;-81
2022/01/14 05:26:49;;;;;;;13.45;2.85;;;1.70;99.90;;;;;;5058884;28;20076;-78
2022/01/14 05:29:15;;;;;;;6.13;2.08;;;1.80;99.90;;;;;;5063646;28;20474;-79
2022/01/14 05:31:45;;;;;;;5.28;2.50;;;1.70;99.90;;;;;;5058534;28;20025;-82
2022/01/14 05:34:11;;;;;;;5.30;2.63;;;1.70;99.90;;;;;;5036640;28;20484;-82
2022/01/14 05:36:37;;;;;;;6.68;2.67;;;1.70;99.90;;;;;;5036843;28;20131;-80
2022/01/14 05:39:04;;;;;;;4.72;2.45;;;1.70;99.90;;;;;;5054088;28;20158;-79
2022/01/14 05:41:30;;;;;;;4.00;2.55;;;1.80;99.90;;;;;;5053814;28;20439;-80
2022/01/14 05:43:56;;;;;;;3.47;2.00;;;1.80;99.90;;;;;;5054049;28;20033;-80
2022/01/14 05:46:21;;;;;;;6.30;2.28;;;1.80;99.90;;;;;;5054096;28;20040;-79
2022/01/14 05:48:47;;;;;;;6.38;2.40;;;1.80;99.90;;;;;;5054798;28;20024;-80
2022/01/14 05:51:13;;;;;;;4.47;1.70;;;1.90;99.90;;;;;;5054245;28;20114;-81
2022/01/14 05:53:39;;;;;;;4.25;1.95;;;1.90;99.90;;;;;;5037612;28;20079;-78
2022/01/14 05:56:05;;;;;;;3.03;1.85;;;2.00;99.90;;;;;;5058042;28;20029;-81
2022/01/14 05:58:31;;;;;;;2.75;1.98;;;1.90;99.90;;;;;;5056598;28;20056;-80
2022/01/14 06:00:56;;;;;;;6.60;2.05;;;2.00;99.90;;;;;;5053516;28;20482;-78
2022/01/14 06:03:22;;;;;;;4.97;2.40;;;2.00;99.90;;;;;;5055238;28;20021;-79
2022/01/14 06:05:49;;;;;;;2.35;1.60;;;2.00;99.90;;;;;;5053759;28;20029;-79
2022/01/14 06:08:14;;;;;;;3.15;1.67;;;2.00;99.90;;;;;;5053640;28;20036;-81
2022/01/14 06:10:40;;;;;;;3.30;1.95;;;2.00;99.90;;;;;;5054231;28;20387;-81
2022/01/14 06:13:06;;;;;;;5.15;2.50;;;2.00;99.90;;;;;;5036334;28;20112;-81
2022/01/14 06:15:32;;;;;;;4.03;2.28;;;2.00;99.90;;;;;;5054561;28;20025;-79
2022/01/14 06:17:58;;;;;;;5.68;2.08;;;2.00;99.90;;;;;;5056156;28;20031;-80
2022/01/14 06:20:24;;;;;;;3.22;1.80;;;1.90;99.90;;;;;;5048511;28;20045;-82
2022/01/14 06:22:50;;;;;;;3.72;2.42;;;1.90;99.90;;;;;;5053379;28;20474;-83
2022/01/14 06:25:16;;;;;;;7.20;1.95;;;2.00;99.90;;;;;;5053033;28;20021;-81
2022/01/14 06:27:42;;;;;;;12.48;2.88;;;2.00;99.90;;;;;;5053101;28;20039;-82
2022/01/14 06:30:08;;;;;;;5.80;3.00;;;2.00;99.90;;;;;;5053157;28;20466;-82
2022/01/14 06:32:43;;;;;;;5.63;2.42;;;2.00;99.90;;;;;;5053087;28;20432;-79
2022/01/14 06:35:14;;;;;;;4.50;2.40;;;2.10;99.90;;;;;;5053274;28;20036;-80
2022/01/14 06:37:40;;;;;;;4.22;2.15;;;2.20;99.90;;;;;;5052985;28;20025;-81
2022/01/14 06:40:08;;;;;;;4.70;2.38;;;2.10;99.90;;;;;;5052958;28;20082;-81
2022/01/14 06:42:34;;;;;;;5.18;2.78;;;2.10;99.90;;;;;;5053350;28;20021;-81
2022/01/14 06:45:01;;;;;;;7.10;2.88;;;2.20;99.90;;;;;;5051615;28;20075;-81
2022/01/14 06:47:27;;;;;;;8.77;2.40;;;2.20;99.90;;;;;;5053019;28;20398;-81
2022/01/14 06:49:52;;;;;;;4.00;1.88;;;2.20;99.90;;;;;;5041697;28;20066;-82
2022/01/14 06:52:19;;;;;;;9.38;2.22;;;2.20;99.90;;;;;;5053303;28;20033;-81
2022/01/14 06:54:44;;;;;;;3.70;1.92;;;2.20;99.90;;;;;;5053316;28;20033;-82
2022/01/14 06:57:10;;;;;;;3.80;2.08;;;2.20;99.90;;;;;;5054306;28;20093;-80
2022/01/14 06:59:36;;;;;;;4.65;1.90;;;2.20;99.90;;;;;;5053794;28;20021;-82
2022/01/14 07:02:02;;;;;;;2.42;1.60;;;2.20;99.90;;;;;;5053230;28;20021;-82
2022/01/14 07:04:28;;;;;;;4.00;2.08;;;2.20;99.90;;;;;;5051344;28;20025;-86
2022/01/14 07:06:54;;;;;;;5.50;2.33;;;2.30;99.90;;;;;;5044775;28;20048;-84
2022/01/14 07:09:20;;;;;;;3.00;1.80;;;2.20;99.90;;;;;;5052948;28;20032;-84
2022/01/14 07:11:52;;;;;;;6.82;2.22;;;2.20;99.90;;;;;;5053149;28;20029;-81
2022/01/14 07:14:18;;;;;;;3.25;1.92;;;2.20;99.90;;;;;;5052132;28;20104;-83
2022/01/14 07:16:44;;;;;;;6.90;1.95;;;2.30;99.90;;;;;;5052686;28;20108;-79
2022/01/14 07:19:10;;;;;;;3.08;1.92;;;2.30;99.90;;;;;;5052143;28;20036;-79
2022/01/14 07:21:36;;;;;;;6.15;2.20;;;2.30;99.90;;;;;;5043591;28;20045;-80
2022/01/14 07:24:03;;;;;;;2.55;1.58;;;2.30;99.90;;;;;;5053131;28;20020;-82
2022/01/14 07:26:29;;;;;;;7.38;2.85;;;2.30;99.90;;;;;;5039210;28;20072;-81
2022/01/14 07:28:55;;;;;;;2.38;1.55;;;2.30;99.90;;;;;;5054218;28;20112;-81
2022/01/14 07:31:20;;;;;;;2.78;1.65;;;2.30;99.90;;;;;;5053959;28;20025;-78
2022/01/14 07:33:46;;;;;;;2.75;1.17;;;2.30;99.90;;;;;;5052867;28;20049;-81
2022/01/14 07:36:12;;;;;;;5.95;1.65;;;2.30;99.90;;;;;;5053719;28;20048;-79
2022/01/14 07:38:38;;;;;;;5.28;1.42;;;2.40;99.90;;;;;;5053662;28;20093;-80
2022/01/14 07:41:04;;;;;;;3.60;1.63;;;2.40;99.90;;;;;;5052644;28;20084;-81
2022/01/14 07:43:30;;;;;;;4.63;1.40;;;2.40;99.90;;;;;;5052728;28;20118;-79
2022/01/14 07:45:56;;;;;;;3.55;2.25;;;2.50;99.90;;;;;;5033179;28;20033;-78
2022/01/14 07:48:22;;;;;;;6.13;1.60;;;2.50;99.90;;;;;;5052811;28;20032;-81
2022/01/14 07:50:48;;;;;;;2.78;1.98;;;2.60;99.90;;;;;;5051610;28;20029;-80
2022/01/14 07:53:14;;;;;;;5.50;2.78;;;2.60;99.90;;;;;;5051997;28;20100;-81
2022/01/14 07:55:40;;;;;;;4.68;1.67;;;2.60;99.90;;;;;;5052263;28;20155;-80
2022/01/14 07:58:06;;;;;;;2.08;1.48;;;2.60;99.90;;;;;;5051646;28;20108;-80
2022/01/14 08:00:35;;;;;;;2.10;1.27;;;2.60;99.90;;;;;;5051888;28;20128;-80
2022/01/14 08:03:01;;;;;;;3.72;2.22;;;2.60;99.90;;;;;;5051514;28;20014;-81
2022/01/14 08:05:27;;;;;;;6.93;2.30;;;2.70;99.90;;;;;;5044389;28;20383;-80
2022/01/14 08:07:56;;;;;;;1.13;0.85;;;2.70;99.90;;;;;;5051016;28;20032;-79
2022/01/14 08:10:22;;;;;;;6.65;1.30;;;2.70;99.90;;;;;;5034906;28;20036;-80
2022/01/14 08:12:48;;;;;;;3.30;1.20;;;2.60;99.90;;;;;;5052134;28;20394;-79
2022/01/14 08:15:14;;;;;;;3.42;1.50;;;2.70;99.90;;;;;;5035900;28;20043;-83
2022/01/14 08:17:41;;;;;;;4.13;1.40;;;2.70;99.90;;;;;;5057362;28;20106;-81
2022/01/14 08:20:08;;;;;;;2.78;1.00;;;2.70;99.90;;;;;;5052524;28;20052;-81
2022/01/14 08:22:34;;;;;;;3.72;1.40;;;2.70;99.90;;;;;;5033825;28;20044;-81
2022/01/14 08:25:01;;;;;;;4.85;0.80;;;2.80;99.90;;;;;;5052059;28;20099;-80
2022/01/14 08:27:27;;;;;;;3.10;1.33;;;2.70;99.90;;;;;;5051450;28;20402;-79
2022/01/14 08:29:53;;;;;;;4.35;1.13;;;2.70;99.90;;;;;;5051594;28;20390;-81
2022/01/14 08:32:21;;;;;;;2.60;1.67;;;2.80;99.90;;;;;;5051226;28;20424;-81
2022/01/14 08:34:47;;;;;;;3.10;1.17;;;2.80;99.90;;;;;;5051522;28;20032;-80
2022/01/14 08:37:13;;;;;;;1.40;0.98;;;2.80;99.90;;;;;;5031446;28;20032;-80
2022/01/14 08:39:39;;;;;;;1.42;1.13;;;2.80;99.90;;;;;;5051419;28;20402;-81
2022/01/14 08:42:08;;;;;;;2.00;1.20;;;2.80;99.90;;;;;;5050373;28;20390;-79
2022/01/14 08:44:36;;;;;;;2.30;1.23;;;2.80;99.90;;;;;;5053159;28;20037;-79
2022/01/14 08:47:02;;;;;;;;;;;2.80;99.90;;;;;;5057187;28;20035;-80
2022/01/14 08:49:28;;;;;;;3.22;1.50;;;2.90;99.90;;;;;;5055385;28;20306;-79
2022/01/14 08:51:54;;;;;;;5.57;1.48;;;2.70;99.90;;;;;;5056530;28;20060;-79
2022/01/14 08:54:20;;;;;;;3.40;2.03;;;2.70;99.90;;;;;;5053314;28;20075;-81
2022/01/14 08:56:46;;;;;;;3.53;2.10;;;2.80;99.90;;;;;;5053311;28;20434;-80
2022/01/14 08:59:16;;;;;;;2.95;1.27;;;2.80;99.90;;;;;;5048252;28;20059;-81
2022/01/14 09:01:43;;;;;;;1.73;1.30;;;2.80;99.90;;;;;;5055115;28;20025;-78
2022/01/14 09:04:09;;;;;;;7.05;1.67;;;2.70;99.90;;;;;;5054461;28;20589;-79
2022/01/14 09:06:38;;;;;;;3.83;2.15;;;2.70;99.90;;;;;;5037002;28;20028;-83
2022/01/14 09:09:05;;;;;;;2.17;1.27;;;2.70;99.90;;;;;;5053278;28;20555;-80
2022/01/14 09:11:31;;;;;;;4.07;1.55;;;2.80;99.90;;;;;;5050910;28;20052;-80
2022/01/14 09:13:57;;;;;;;5.82;1.80;;;2.80;99.90;;;;;;5054046;28;20033;-79
2022/01/14 09:16:23;;;;;;;1.55;1.13;;;2.80;99.90;;;;;;5054677;28;20040;-80
2022/01/14 09:18:49;;;;;;;2.42;1.30;;;2.90;99.90;;;;;;5053687;28;20509;-83
2022/01/14 09:21:16;;;;;;;5.18;1.30;;;2.90;99.90;;;;;;5056136;28;20064;-80
2022/01/14 09:23:44;;;;;;;4.70;1.00;;;3.00;99.90;;;;;;5059704;28;20356;-81
2022/01/14 09:26:09;;;;;;;3.42;1.83;;;3.00;99.90;;;;;;5054740;28;20037;-81
2022/01/14 09:28:35;;;;;;;3.33;1.52;;;3.10;99.90;;;;;;5055191;28;20025;-80
2022/01/14 09:31:01;;;;;;;3.60;1.40;;;3.20;99.90;;;;;;5054814;28;20075;-82
2022/01/14 09:33:27;;;;;;;4.65;1.65;;;3.30;99.90;;;;;;5052863;28;20025;-80
2022/01/14 09:35:53;;;;;;;3.35;2.08;;;3.30;99.90;;;;;;5054384;28;20110;-79
2022/01/14 09:38:21;;;;;;;3.67;2.47;;;3.40;99.90;;;;;;5054056;28;20037;-80
2022/01/14 09:40:49;;;;;;;5.28;3.42;;;3.30;99.90;;;;;;5051936;28;20068;-81
2022/01/14 09:43:15;;;;;;;3.97;2.92;;;3.30;99.90;;;;;;5054070;28;20025;-82
2022/01/14 09:45:42;;;;;;;3.10;1.92;;;3.20;99.90;;;;;;5054205;28;20029;-80
2022/01/14 09:48:08;;;;;;;8.53;3.17;;;3.10;99.90;;;;;;5036679;28;20083;-81
2022/01/14 09:50:34;;;;;;;7.28;3.95;;;3.10;99.90;;;;;;5056791;28;20021;-82
2022/01/14 09:53:00;;;;;;;3.17;1.98;;;3.10;99.90;;;;;;5054444;28;20025;-82
2022/01/14 09:55:26;;;;;;;1.83;1.48;;;3.10;99.90;;;;;;5053363;28;20029;-80
2022/01/14 09:57:57;;;;;;;2.95;1.85;;;3.00;99.90;;;;;;5053126;28;20404;-81
2022/01/14 10:00:23;;;;;;;1.40;0.82;;;3.00;99.90;;;;;;5053273;28;20477;-82
2022/01/14 10:02:51;;;;;;;8.98;1.85;;;3.00;99.90;;;;;;5052648;28;20105;-80
2022/01/14 10:05:38;;;;;;;4.90;2.20;;;2.90;99.90;;;;;;5053088;28;20021;-81
2022/01/14 10:08:13;;;;;;;7.63;2.45;;;2.80;99.90;;;;;;5036316;28;20057;-79
2022/01/14 10:10:45;;;;;;;4.10;1.70;;;2.70;99.90;;;;;;5053687;28;20025;-79
2022/01/14 10:13:17;;;;;;;4.13;1.20;;;2.60;99.90;;;;;;5065865;28;20040;-80
2022/01/14 10:15:48;;;;;;;3.00;0.93;;;2.50;99.90;;;;;;5047828;28;20061;-81
2022/01/14 10:18:17;;;;;;;2.72;1.58;;;2.40;99.90;;;;;;5036939;28;20029;-83
2022/01/14 10:20:43;;;;;;;1.33;0.75;;;2.30;99.90;;;;;;5035288;28;20121;-79
2022/01/14 10:23:12;;;;;;;2.40;0.88;;;2.20;99.90;;;;;;5034605;28;20498;-79
2022/01/14 10:25:40;;;;;;;5.07;1.10;;;2.10;99.90;;;;;;5016174;28;20052;-81
2022/01/14 10:28:17;;;;;;;5.10;2.05;;;2.10;99.90;;;;;;5033007;28;20398;-81
2022/01/14 10:30:45;;;;;;;13.38;1.98;;;2.10;99.90;;;;;;5042916;28;20494;-81
2022/01/14 10:33:11;;;;;;;1.73;1.10;;;2.00;99.90;;;;;;5054567;28;20037;-80
2022/01/14 10:35:41;;;;;;;7.78;1.88;;;2.00;99.90;;;;;;5052483;28;20028;-79
2022/01/14 10:38:10;;;;;;;1.73;1.05;;;1.90;99.90;;;;;;5054005;28;20413;-82
2022/01/14 10:40:42;;;;;;;3.55;2.03;;;1.80;99.90;;;;;;5036067;28;20048;-82
2022/01/14 10:43:09;;;;;;;4.40;1.38;;;1.80;99.90;;;;;;5053352;28;20374;-79
2022/01/14 10:45:36;;;;;;;3.17;1.40;;;1.80;99.90;;;;;;5051381;28;20018;-82
2022/01/14 10:48:11;;;;;;;1.17;0.75;;;1.80;99.90;;;;;;5025193;28;20037;-79
2022/01/14 10:50:38;;;;;;;4.75;1.60;;;1.80;99.90;;;;;;5033315;28;20045;-80
2022/01/14 10:53:24;;;;;;;3.15;1.42;;;1.70;99.90;;;;;;5032960;28;20124;-79
2022/01/14 10:55:52;;;;;;;4.72;1.45;;;1.70;99.90;;;;;;5028711;28;20057;-80
2022/01/14 10:58:25;;;;;;;3.25;1.50;;;1.80;99.90;;;;;;5052973;28;20108;-80
2022/01/14 11:00:59;;;;;;;2.78;1.08;;;1.80;99.90;;;;;;5053220;28;20025;-82
2022/01/14 11:03:43;;;;;;;1.70;0.95;;;1.80;99.90;;;;;;5052374;28;20167;-82
2022/01/14 11:06:28;;;;;;;3.10;1.30;;;1.80;99.90;;;;;;5052966;28;20037;-80
2022/01/14 11:09:06;;;;;;;10.20;1.85;;;1.80;99.90;;;;;;5034868;28;20036;-80
2022/01/14 11:11:34;;;;;;;3.38;1.27;;;1.80;99.90;;;;;;5052896;28;20025;-79
2022/01/14 11:14:01;;;;;;;6.65;2.20;;;1.80;99.90;;;;;;5034959;28;20033;-82
2022/01/14 11:16:27;;;;;;;3.88;1.20;;;1.80;99.90;;;;;;5054080;28;20036;-81
2022/01/14 11:18:57;;;;;;;7.13;1.77;;;1.70;99.90;;;;;;5037275;28;20040;-79
2022/01/14 11:24:22;;;;;;;2.22;1.00;;;1.60;99.90;;;;;;5057407;28;20071;-81
2022/01/14 11:26:50;;;;;;;8.18;1.60;;;1.60;99.90;;;;;;5055667;28;20130;-81
2022/01/14 11:29:20;;;;;;;18.17;4.07;;;1.60;99.90;;;;;;5053889;28;20082;-80
2022/01/14 11:31:59;;;;;;;4.88;1.90;;;1.70;99.90;;;;;;5052567;28;20029;-81
2022/01/14 11:34:39;;;;;;;2.28;1.02;;;1.80;99.90;;;;;;5052194;28;20040;-80
2022/01/14 11:37:14;;;;;;;1.98;1.35;;;1.80;99.90;;;;;;5052343;28;20052;-81
2022/01/14 11:40:01;;;;;;;4.20;1.73;;;1.70;99.90;;;;;;5051141;28;20394;-81
2022/01/14 11:42:45;;;;;;;3.92;1.55;;;1.70;99.90;;;;;;5016148;28;20030;-81
2022/01/14 11:45:13;;;;;;;3.10;1.65;;;1.60;99.90;;;;;;5014812;28;20124;-82
2022/01/14 11:47:44;;;;;;;4.10;1.48;;;1.60;99.90;;;;;;5015026;28;20187;-85
2022/01/14 11:50:19;;;;;;;5.72;1.30;;;1.60;99.90;;;;;;5032897;28;20025;-82
2022/01/14 11:52:46;;;;;;;6.05;1.80;;;1.60;99.90;;;;;;5032826;28;20513;-84
2022/01/14 11:55:15;;;;;;;4.60;1.70;;;1.60;99.90;;;;;;5051775;28;20017;-81
2022/01/14 11:57:44;;;;;;;3.13;1.75;;;1.60;99.90;;;;;;5051196;28;20040;-81
2022/01/14 12:00:30;;;;;;;3.25;1.80;;;1.60;99.90;;;;;;5052289;28;20485;-81
2022/01/14 12:03:21;;;;;;;2.63;1.35;;;1.50;99.90;;;;;;5052488;28;20378;-84
2022/01/14 12:05:50;;;;;;;3.33;1.40;;;1.50;99.90;;;;;;5052726;28;20033;-80
2022/01/14 12:08:21;;;;;;;5.78;2.30;;;1.50;99.90;;;;;;5053543;28;20029;-83
2022/01/14 12:10:57;;;;;;;8.05;1.70;;;1.50;99.90;;;;;;5052653;28;20048;-81
2022/01/14 12:13:49;;;;;;;2.60;1.75;;;1.50;99.90;;;;;;5051973;28;20403;-84
2022/01/14 12:19:11;;;;;;;4.22;2.28;;;1.60;99.90;;;;;;5055404;28;20021;-82
2022/01/14 12:21:50;;;;;;;3.15;1.52;;;1.60;99.90;;;;;;5060872;28;20116;-81
2022/01/14 12:27:11;;;;;;;7.45;1.83;;;1.60;99.90;;;;;;5057677;28;20033;-81
2022/01/14 12:29:39;;;;;;;6.22;1.92;;;1.60;99.90;;;;;;5055160;28;20025;-82
2022/01/14 12:32:06;;;;;;;5.50;2.47;;;1.60;99.90;;;;;;5056923;28;20048;-80
2022/01/14 12:34:39;;;;;;;3.85;1.80;;;1.60;99.90;;;;;;5056275;28;20500;-81
2022/01/14 12:37:05;;;;;;;6.03;1.77;;;1.70;99.90;;;;;;5057231;28;20025;-80
2022/01/14 12:39:32;;;;;;;3.10;1.60;;;1.60;99.90;;;;;;5058580;28;20470;-80
2022/01/14 12:42:00;;;;;;;7.17;1.70;;;1.70;99.90;;;;;;5060062;28;20118;-80
2022/01/14 12:44:26;;;;;;;;;;;1.60;99.90;;;;;;5037849;28;20029;-80
2022/01/14 12:47:05;;;;;;;5.00;2.05;;;1.60;99.90;;;;;;5052164;28;20007;-80
2022/01/14 12:49:34;;;;;;;5.20;1.85;;;1.60;99.90;;;;;;5055335;28;20020;-81
2022/01/14 12:52:09;;;;;;;2.42;1.75;;;1.60;99.90;;;;;;5055922;28;20025;-83
2022/01/14 12:54:37;;;;;;;8.93;2.30;;;1.60;99.90;;;;;;5055429;28;20036;-81
2022/01/14 12:57:04;;;;;;;7.57;1.88;;;1.60;99.90;;;;;;5037505;28;20055;-80
2022/01/14 12:59:43;;;;;;;5.53;2.38;;;1.60;99.90;;;;;;5038087;28;20036;-80
2022/01/14 13:02:15;;;;;;;5.55;1.92;;;1.60;99.90;;;;;;5055975;28;20056;-82
2022/01/14 13:04:41;;;;;;;4.15;1.48;;;1.60;99.80;;;;;;5038098;28;20106;-82
2022/01/14 13:07:08;;;;;;;4.82;1.92;;;1.50;99.80;;;;;;5054284;28;20119;-80
2022/01/14 13:09:38;;;;;;;1.80;1.10;;;1.50;99.60;;;;;;5058400;28;20025;-80
2022/01/14 13:12:12;;;;;;;3.47;2.03;;;1.40;99.40;;;;;;5056931;28;20268;-81
2022/01/14 13:14:45;;;;;;;3.38;1.30;;;1.40;99.20;;;;;;5056803;28;20045;-81
2022/01/14 13:17:26;;;;;;;4.03;2.13;;;1.30;99.20;;;;;;5055242;28;20025;-80
2022/01/14 13:19:57;;;;;;;5.43;1.60;;;1.30;99.20;;;;;;5033745;28;20041;-81
2022/01/14 13:22:24;;;;;;;3.83;1.95;;;1.20;99.10;;;;;;5035659;28;20071;-78
2022/01/14 13:24:54;;;;;;;3.15;2.03;;;1.20;99.20;;;;;;5036796;28;20026;-80
2022/01/14 13:27:29;;;;;;;2.42;1.75;;;1.20;99.20;;;;;;5043280;28;20470;-79
2022/01/14 13:29:59;;;;;;;4.22;1.48;;;1.20;99.70;;;;;;5036686;28;20033;-82
2022/01/14 13:32:26;;;;;;;7.70;2.90;;;1.20;99.40;;;;;;5036568;28;20436;-83
2022/01/14 13:35:10;;;;;;;2.03;1.55;;;1.20;99.30;;;;;;5037649;28;20044;-82
2022/01/14 13:37:37;;;;;;;3.30;1.25;;;1.30;99.20;;;;;;5055092;28;20471;-80
2022/01/14 13:40:10;;;;;;;5.40;1.80;;;1.30;99.30;;;;;;5054984;28;20374;-82